sensor_id;sensor_type;location;lat;lon;timestamp;pressure;altitude;pressure_sealevel;temperature;humidity
31121;BME280;17770;45.966;13.632;2022-12-17T00:01:25;99790.25;;;13.80;60.93
31121;BME280;17770;45.966;13.632;2022-12-17T00:04:09;99794.56;;;13.81;60.79
31121;BME280;17770;45.966;13.632;2022-12-17T00:06:54;99794.56;;;13.81;61.27
31121;BME280;17770;45.966;13.632;2022-12-17T00:09:38;99801.41;;;13.82;61.07
31121;BME280;17770;45.966;13.632;2022-12-17T00:12:22;99795.28;;;13.83;60.86
31121;BME280;17770;45.966;13.632;2022-12-17T00:15:07;99797.97;;;13.82;60.89
31121;BME280;17770;45.966;13.632;2022-12-17T00:17:51;99810.91;;;13.82;61.30
31121;BME280;17770;45.966;13.632;2022-12-17T00:20:40;99805.66;;;13.83;61.09
31121;BME280;17770;45.966;13.632;2022-12-17T00:23:24;99797.88;;;13.83;61.05
31121;BME280;17770;45.966;13.632;2022-12-17T00:26:08;99783.16;;;13.84;61.20
31121;BME280;17770;45.966;13.632;2022-12-17T00:28:53;99763.28;;;13.84;61.11
31121;BME280;17770;45.966;13.632;2022-12-17T00:31:37;99761.53;;;13.85;60.82
31121;BME280;17770;45.966;13.632;2022-12-17T00:34:35;99760.78;;;13.83;60.93
31121;BME280;17770;45.966;13.632;2022-12-17T00:37:19;99765.03;;;13.84;60.83
31121;BME280;17770;45.966;13.632;2022-12-17T00:40:03;99768.47;;;13.84;60.97
31121;BME280;17770;45.966;13.632;2022-12-17T00:42:57;99776.25;;;13.84;60.70
31121;BME280;17770;45.966;13.632;2022-12-17T00:45:42;99783.94;;;13.86;60.97
31121;BME280;17770;45.966;13.632;2022-12-17T00:48:26;99792.56;;;13.86;61.06
31121;BME280;17770;45.966;13.632;2022-12-17T00:51:12;99806.41;;;13.85;60.86
31121;BME280;17770;45.966;13.632;2022-12-17T00:53:56;99803.75;;;13.87;60.96
31121;BME280;17770;45.966;13.632;2022-12-17T00:56:41;99820.13;;;13.87;61.06
31121;BME280;17770;45.966;13.632;2022-12-17T00:59:25;99814.09;;;13.87;60.75
31121;BME280;17770;45.966;13.632;2022-12-17T01:02:09;99822.72;;;13.87;61.09
31121;BME280;17770;45.966;13.632;2022-12-17T01:04:53;99829.56;;;13.88;61.15
31121;BME280;17770;45.966;13.632;2022-12-17T01:07:37;99837.34;;;13.88;60.79
31121;BME280;17770;45.966;13.632;2022-12-17T01:10:22;99840.88;;;13.87;60.86
31121;BME280;17770;45.966;13.632;2022-12-17T01:13:06;99840.88;;;13.87;60.60
31121;BME280;17770;45.966;13.632;2022-12-17T01:15:50;99837.34;;;13.88;61.25
31121;BME280;17770;45.966;13.632;2022-12-17T01:18:34;99843.38;;;13.89;61.04
31121;BME280;17770;45.966;13.632;2022-12-17T01:21:19;99845.97;;;13.89;60.79
31121;BME280;17770;45.966;13.632;2022-12-17T01:24:03;99847.72;;;13.88;61.19
31121;BME280;17770;45.966;13.632;2022-12-17T01:26:47;99852.91;;;13.88;61.07
31121;BME280;17770;45.966;13.632;2022-12-17T01:29:33;99850.31;;;13.88;61.13
31121;BME280;17770;45.966;13.632;2022-12-17T01:32:17;99854.59;;;13.89;61.11
31121;BME280;17770;45.966;13.632;2022-12-17T01:35:02;99864.97;;;13.89;61.16
31121;BME280;17770;45.966;13.632;2022-12-17T01:37:51;99877.00;;;13.90;60.76
31121;BME280;17770;45.966;13.632;2022-12-17T01:40:36;99873.63;;;13.88;61.33
31121;BME280;17770;45.966;13.632;2022-12-17T01:43:30;99879.59;;;13.90;60.84
31121;BME280;17770;45.966;13.632;2022-12-17T01:46:14;99878.69;;;13.91;61.27
31121;BME280;17770;45.966;13.632;2022-12-17T01:48:59;99883.03;;;13.91;61.17
31121;BME280;17770;45.966;13.632;2022-12-17T01:51:43;99889.97;;;13.90;60.93
31121;BME280;17770;45.966;13.632;2022-12-17T01:54:28;99900.31;;;13.90;61.01
31121;BME280;17770;45.966;13.632;2022-12-17T01:57:14;99905.44;;;13.92;60.99
31121;BME280;17770;45.966;13.632;2022-12-17T02:00:03;99915.81;;;13.92;61.13
31121;BME280;17770;45.966;13.632;2022-12-17T02:02:48;99918.41;;;13.92;61.14
31121;BME280;17770;45.966;13.632;2022-12-17T02:05:37;99917.50;;;13.93;60.77
31121;BME280;17770;45.966;13.632;2022-12-17T02:11:24;99928.69;;;13.93;61.18
31121;BME280;17770;45.966;13.632;2022-12-17T02:16:58;99934.72;;;13.94;60.98
31121;BME280;17770;45.966;13.632;2022-12-17T02:23:04;99943.41;;;13.93;60.81
31121;BME280;17770;45.966;13.632;2022-12-17T02:26:13;99943.41;;;13.93;61.06
31121;BME280;17770;45.966;13.632;2022-12-17T02:28:56;99949.41;;;13.93;61.20
31121;BME280;17770;45.966;13.632;2022-12-17T02:31:43;99950.25;;;13.94;61.34
31121;BME280;17770;45.966;13.632;2022-12-17T02:34:28;99945.09;;;13.94;60.95
31121;BME280;17770;45.966;13.632;2022-12-17T02:37:12;99957.97;;;13.95;61.20
31121;BME280;17770;45.966;13.632;2022-12-17T02:39:57;99964.91;;;13.95;60.94
31121;BME280;17770;45.966;13.632;2022-12-17T02:42:44;99963.22;;;13.94;61.02
31121;BME280;17770;45.966;13.632;2022-12-17T02:45:32;99970.06;;;13.95;61.00
31121;BME280;17770;45.966;13.632;2022-12-17T02:48:17;99979.56;;;13.96;61.02
31121;BME280;17770;45.966;13.632;2022-12-17T02:51:02;99982.16;;;13.96;60.73
31121;BME280;17770;45.966;13.632;2022-12-17T02:53:49;99986.47;;;13.95;61.10
31121;BME280;17770;45.966;13.632;2022-12-17T02:56:34;99984.66;;;13.97;61.28
31121;BME280;17770;45.966;13.632;2022-12-17T02:59:18;99995.94;;;13.96;61.25
31121;BME280;17770;45.966;13.632;2022-12-17T03:02:10;99996.78;;;13.97;60.92
31121;BME280;17770;45.966;13.632;2022-12-17T03:04:54;100001.94;;;13.97;61.37
31121;BME280;17770;45.966;13.632;2022-12-17T03:07:38;100002.81;;;13.97;60.77
31121;BME280;17770;45.966;13.632;2022-12-17T03:10:23;100001.13;;;13.96;60.88
31121;BME280;17770;45.966;13.632;2022-12-17T03:13:07;100005.41;;;13.97;61.21
31121;BME280;17770;45.966;13.632;2022-12-17T03:15:51;100009.66;;;13.98;60.63
31121;BME280;17770;45.966;13.632;2022-12-17T03:18:36;100008.00;;;13.97;61.17
31121;BME280;17770;45.966;13.632;2022-12-17T03:21:20;100019.22;;;13.98;61.09
31121;BME280;17770;45.966;13.632;2022-12-17T03:24:04;100020.94;;;13.97;60.88
31121;BME280;17770;45.966;13.632;2022-12-17T03:26:49;100019.22;;;13.98;61.07
31121;BME280;17770;45.966;13.632;2022-12-17T03:29:33;100020.03;;;13.98;60.81
31121;BME280;17770;45.966;13.632;2022-12-17T03:32:17;100027.81;;;13.98;61.33
31121;BME280;17770;45.966;13.632;2022-12-17T03:35:01;100021.72;;;13.99;61.20
31121;BME280;17770;45.966;13.632;2022-12-17T03:37:46;100026.06;;;13.99;60.96
31121;BME280;17770;45.966;13.632;2022-12-17T03:40:49;100028.66;;;13.99;61.21
31121;BME280;17770;45.966;13.632;2022-12-17T03:43:34;100028.66;;;13.99;61.18
31121;BME280;17770;45.966;13.632;2022-12-17T03:46:18;100027.72;;;14.00;61.09
31121;BME280;17770;45.966;13.632;2022-12-17T03:49:03;100027.72;;;14.00;61.25
31121;BME280;17770;45.966;13.632;2022-12-17T03:51:47;100031.25;;;13.99;61.01
31121;BME280;17770;45.966;13.632;2022-12-17T03:54:32;100026.91;;;13.99;60.96
31121;BME280;17770;45.966;13.632;2022-12-17T03:57:16;100021.72;;;13.99;60.88
31121;BME280;17770;45.966;13.632;2022-12-17T04:00:01;100029.50;;;13.99;60.79
31121;BME280;17770;45.966;13.632;2022-12-17T04:02:56;100042.47;;;13.99;61.17
31121;BME280;17770;45.966;13.632;2022-12-17T04:05:40;100049.31;;;14.00;61.07
31121;BME280;17770;45.966;13.632;2022-12-17T04:08:25;100054.50;;;14.00;60.99
31121;BME280;17770;45.966;13.632;2022-12-17T04:11:13;100057.00;;;14.02;61.17
31121;BME280;17770;45.966;13.632;2022-12-17T04:13:58;100048.41;;;14.01;60.87
31121;BME280;17770;45.966;13.632;2022-12-17T04:16:42;100055.34;;;14.01;61.24
31121;BME280;17770;45.966;13.632;2022-12-17T04:19:26;100057.94;;;14.01;60.98
31121;BME280;17770;45.966;13.632;2022-12-17T04:22:11;100052.69;;;14.02;60.97
31121;BME280;17770;45.966;13.632;2022-12-17T04:24:55;100064.78;;;14.02;60.89
31121;BME280;17770;45.966;13.632;2022-12-17T04:27:39;100066.56;;;14.01;60.98
31121;BME280;17770;45.966;13.632;2022-12-17T04:30:24;100066.56;;;14.01;61.20
31121;BME280;17770;45.966;13.632;2022-12-17T04:33:08;100084.63;;;14.03;61.38
31121;BME280;17770;45.966;13.632;2022-12-17T04:35:52;100089.81;;;14.03;61.11
31121;BME280;17770;45.966;13.632;2022-12-17T04:38:41;100100.28;;;14.01;60.84
31121;BME280;17770;45.966;13.632;2022-12-17T04:41:25;100107.13;;;14.02;61.16
31121;BME280;17770;45.966;13.632;2022-12-17T04:44:10;100110.56;;;14.03;61.05
31121;BME280;17770;45.966;13.632;2022-12-17T04:46:54;100115.75;;;14.03;61.00
31121;BME280;17770;45.966;13.632;2022-12-17T04:49:38;100104.53;;;14.02;61.31
31121;BME280;17770;45.966;13.632;2022-12-17T04:52:23;100104.59;;;14.01;61.11
31121;BME280;17770;45.966;13.632;2022-12-17T04:55:07;100104.59;;;14.01;61.02
31121;BME280;17770;45.966;13.632;2022-12-17T04:57:51;100103.69;;;14.02;60.83
31121;BME280;17770;45.966;13.632;2022-12-17T05:00:36;100105.47;;;14.01;61.04
31121;BME280;17770;45.966;13.632;2022-12-17T05:03:20;100108.06;;;14.01;60.82
31121;BME280;17770;45.966;13.632;2022-12-17T05:06:04;100107.19;;;14.01;61.14
31121;BME280;17770;45.966;13.632;2022-12-17T05:08:49;100107.97;;;14.03;61.07
31121;BME280;17770;45.966;13.632;2022-12-17T05:11:33;100100.19;;;14.03;60.75
31121;BME280;17770;45.966;13.632;2022-12-17T05:14:17;100104.53;;;14.02;61.09
31121;BME280;17770;45.966;13.632;2022-12-17T05:17:02;100107.03;;;14.04;61.05
31121;BME280;17770;45.966;13.632;2022-12-17T05:19:46;100108.78;;;14.03;60.96
31121;BME280;17770;45.966;13.632;2022-12-17T05:22:30;100117.50;;;14.02;61.26
31121;BME280;17770;45.966;13.632;2022-12-17T05:25:14;100123.53;;;14.03;61.11
31121;BME280;17770;45.966;13.632;2022-12-17T05:27:58;100133.91;;;14.03;60.81
31121;BME280;17770;45.966;13.632;2022-12-17T05:30:49;100142.50;;;14.03;61.21
31121;BME280;17770;45.966;13.632;2022-12-17T05:33:34;100146.84;;;14.03;61.05
31121;BME280;17770;45.966;13.632;2022-12-17T05:36:18;100153.72;;;14.04;61.06
31121;BME280;17770;45.966;13.632;2022-12-17T05:39:02;100161.50;;;14.04;60.73
31121;BME280;17770;45.966;13.632;2022-12-17T05:41:47;100172.78;;;14.03;61.20
31121;BME280;17770;45.966;13.632;2022-12-17T05:44:31;100174.47;;;14.04;61.03
31121;BME280;17770;45.966;13.632;2022-12-17T05:47:15;100176.19;;;14.03;61.10
31121;BME280;17770;45.966;13.632;2022-12-17T05:50:00;100183.91;;;14.05;60.76
31121;BME280;17770;45.966;13.632;2022-12-17T05:52:44;100177.91;;;14.04;60.89
31121;BME280;17770;45.966;13.632;2022-12-17T05:55:28;100183.09;;;14.04;61.14
31121;BME280;17770;45.966;13.632;2022-12-17T05:58:26;100191.75;;;14.03;61.26
31121;BME280;17770;45.966;13.632;2022-12-17T06:01:11;100202.97;;;14.04;61.18
31121;BME280;17770;45.966;13.632;2022-12-17T06:03:55;100198.72;;;14.03;61.15
31121;BME280;17770;45.966;13.632;2022-12-17T06:06:39;100207.31;;;14.03;61.14
31121;BME280;17770;45.966;13.632;2022-12-17T06:09:24;100214.28;;;14.03;61.08
31121;BME280;17770;45.966;13.632;2022-12-17T06:12:08;100217.69;;;14.03;60.97
31121;BME280;17770;45.966;13.632;2022-12-17T06:14:52;100221.97;;;14.04;61.27
31121;BME280;17770;45.966;13.632;2022-12-17T06:17:36;100226.31;;;14.04;61.12
31121;BME280;17770;45.966;13.632;2022-12-17T06:20:20;100234.09;;;14.04;60.98
31121;BME280;17770;45.966;13.632;2022-12-17T06:23:05;100245.31;;;14.04;61.01
31121;BME280;17770;45.966;13.632;2022-12-17T06:25:51;100237.59;;;14.03;61.33
31121;BME280;17770;45.966;13.632;2022-12-17T06:28:36;100251.38;;;14.03;61.01
31121;BME280;17770;45.966;13.632;2022-12-17T06:31:20;100250.56;;;14.03;61.27
31121;BME280;17770;45.966;13.632;2022-12-17T06:34:04;100258.34;;;14.03;61.02
31121;BME280;17770;45.966;13.632;2022-12-17T06:36:49;100253.09;;;14.04;60.74
31121;BME280;17770;45.966;13.632;2022-12-17T06:39:33;100253.97;;;14.03;61.04
31121;BME280;17770;45.966;13.632;2022-12-17T06:42:17;100255.75;;;14.03;61.04
31121;BME280;17770;45.966;13.632;2022-12-17T06:45:02;100263.53;;;14.03;60.81
31121;BME280;17770;45.966;13.632;2022-12-17T06:47:46;100277.31;;;14.03;61.30
31121;BME280;17770;45.966;13.632;2022-12-17T06:50:30;100299.75;;;14.04;61.34
31121;BME280;17770;45.966;13.632;2022-12-17T06:53:14;100307.53;;;14.04;60.60
31121;BME280;17770;45.966;13.632;2022-12-17T06:55:59;100306.69;;;14.04;61.09
31121;BME280;17770;45.966;13.632;2022-12-17T06:58:43;100311.03;;;14.03;60.97
31121;BME280;17770;45.966;13.632;2022-12-17T07:01:28;100314.59;;;14.01;60.86
31121;BME280;17770;45.966;13.632;2022-12-17T07:04:12;100321.41;;;14.03;61.39
31121;BME280;17770;45.966;13.632;2022-12-17T07:06:56;100320.56;;;14.03;60.82
31121;BME280;17770;45.966;13.632;2022-12-17T07:09:41;100332.63;;;14.04;60.80
31121;BME280;17770;45.966;13.632;2022-12-17T07:12:25;100343.00;;;14.04;61.25
31121;BME280;17770;45.966;13.632;2022-12-17T07:15:09;100344.72;;;14.03;60.76
31121;BME280;17770;45.966;13.632;2022-12-17T07:17:58;100345.59;;;14.04;61.19
31121;BME280;17770;45.966;13.632;2022-12-17T07:20:43;100360.28;;;14.03;60.76
31121;BME280;17770;45.966;13.632;2022-12-17T07:23:27;100364.66;;;14.03;60.77
31121;BME280;17770;45.966;13.632;2022-12-17T07:26:12;100371.56;;;14.02;61.05
31121;BME280;17770;45.966;13.632;2022-12-17T07:28:56;100375.03;;;14.03;61.06
31121;BME280;17770;45.966;13.632;2022-12-17T07:31:40;100380.22;;;14.03;61.19
31121;BME280;17770;45.966;13.632;2022-12-17T07:34:25;100382.81;;;14.03;61.20
31121;BME280;17770;45.966;13.632;2022-12-17T07:37:09;100380.22;;;14.03;61.02
31121;BME280;17770;45.966;13.632;2022-12-17T07:39:53;100394.91;;;14.02;60.94
31121;BME280;17770;45.966;13.632;2022-12-17T07:42:38;100396.59;;;14.03;61.07
31121;BME280;17770;45.966;13.632;2022-12-17T07:45:22;100400.09;;;14.02;60.97
31121;BME280;17770;45.966;13.632;2022-12-17T07:48:07;100414.81;;;14.02;61.04
31121;BME280;17770;45.966;13.632;2022-12-17T07:50:51;100417.41;;;14.02;60.89
31121;BME280;17770;45.966;13.632;2022-12-17T07:53:36;100421.69;;;14.03;61.06
31121;BME280;17770;45.966;13.632;2022-12-17T07:56:20;100430.28;;;14.03;61.32
31121;BME280;17770;45.966;13.632;2022-12-17T07:59:04;100432.06;;;14.03;61.14
31121;BME280;17770;45.966;13.632;2022-12-17T08:01:48;100434.72;;;14.01;60.89
31121;BME280;17770;45.966;13.632;2022-12-17T08:04:33;100435.47;;;14.03;61.23
31121;BME280;17770;45.966;13.632;2022-12-17T08:07:17;100437.25;;;14.03;61.21
31121;BME280;17770;45.966;13.632;2022-12-17T08:10:01;100444.19;;;14.02;60.95
31121;BME280;17770;45.966;13.632;2022-12-17T08:12:54;100454.56;;;14.02;60.97
31121;BME280;17770;45.966;13.632;2022-12-17T08:15:38;100458.81;;;14.03;60.94
31121;BME280;17770;45.966;13.632;2022-12-17T08:18:22;100467.53;;;14.02;60.62
31121;BME280;17770;45.966;13.632;2022-12-17T08:21:06;100474.38;;;14.03;60.92
31121;BME280;17770;45.966;13.632;2022-12-17T08:23:50;100484.75;;;14.03;60.77
31121;BME280;17770;45.966;13.632;2022-12-17T08:26:35;100497.72;;;14.03;61.00
31121;BME280;17770;45.966;13.632;2022-12-17T08:29:19;100496.03;;;14.02;60.97
31121;BME280;17770;45.966;13.632;2022-12-17T08:32:08;100515.03;;;14.03;61.03
31121;BME280;17770;45.966;13.632;2022-12-17T08:34:53;100520.22;;;14.03;60.94
31121;BME280;17770;45.966;13.632;2022-12-17T08:37:37;100525.41;;;14.03;60.86
31121;BME280;17770;45.966;13.632;2022-12-17T08:40:21;100530.59;;;14.03;61.23
31121;BME280;17770;45.966;13.632;2022-12-17T08:43:05;100537.53;;;14.02;61.13
31121;BME280;17770;45.966;13.632;2022-12-17T08:45:50;100544.44;;;14.02;61.16
31121;BME280;17770;45.966;13.632;2022-12-17T08:48:35;100547.03;;;14.02;61.13
31121;BME280;17770;45.966;13.632;2022-12-17T08:51:20;100553.09;;;14.02;60.88
31121;BME280;17770;45.966;13.632;2022-12-17T08:54:04;100560.84;;;14.02;61.12
31121;BME280;17770;45.966;13.632;2022-12-17T08:56:48;100563.44;;;14.02;61.03
31121;BME280;17770;45.966;13.632;2022-12-17T08:59:33;100577.28;;;14.03;60.95
31121;BME280;17770;45.966;13.632;2022-12-17T09:02:17;100579.94;;;14.01;60.84
31121;BME280;17770;45.966;13.632;2022-12-17T09:05:01;100588.47;;;14.03;61.22
31121;BME280;17770;45.966;13.632;2022-12-17T09:07:56;100591.13;;;14.02;60.71
31121;BME280;17770;45.966;13.632;2022-12-17T09:10:40;100587.66;;;14.03;60.95
31121;BME280;17770;45.966;13.632;2022-12-17T09:13:25;100591.13;;;14.02;61.03
31121;BME280;17770;45.966;13.632;2022-12-17T09:16:09;100593.66;;;14.03;61.04
31121;BME280;17770;45.966;13.632;2022-12-17T09:18:53;100602.34;;;14.02;61.15
31121;BME280;17770;45.966;13.632;2022-12-17T09:21:37;100608.38;;;14.03;61.00
31121;BME280;17770;45.966;13.632;2022-12-17T09:24:22;100610.97;;;14.03;61.05
31121;BME280;17770;45.966;13.632;2022-12-17T09:27:06;100617.00;;;14.03;60.85
31121;BME280;17770;45.966;13.632;2022-12-17T09:29:50;100610.13;;;14.02;61.04
31121;BME280;17770;45.966;13.632;2022-12-17T09:32:34;100620.50;;;14.02;61.01
31121;BME280;17770;45.966;13.632;2022-12-17T09:35:18;100623.94;;;14.03;60.99
31121;BME280;17770;45.966;13.632;2022-12-17T09:38:03;100627.34;;;14.03;60.56
31121;BME280;17770;45.966;13.632;2022-12-17T09:40:47;100631.72;;;14.03;60.83
31121;BME280;17770;45.966;13.632;2022-12-17T09:49:21;100641.19;;;14.04;60.97
31121;BME280;17770;45.966;13.632;2022-12-17T09:52:13;100641.19;;;14.04;60.81
31121;BME280;17770;45.966;13.632;2022-12-17T09:55:00;100644.69;;;14.03;61.05
31121;BME280;17770;45.966;13.632;2022-12-17T09:57:46;100648.09;;;14.03;60.95
31121;BME280;17770;45.966;13.632;2022-12-17T10:00:32;100650.69;;;14.03;60.89
31121;BME280;17770;45.966;13.632;2022-12-17T10:03:20;100663.59;;;14.05;61.00
31121;BME280;17770;45.966;13.632;2022-12-17T10:06:16;100665.38;;;14.04;60.74
31121;BME280;17770;45.966;13.632;2022-12-17T10:09:05;100658.41;;;14.05;60.95
31121;BME280;17770;45.966;13.632;2022-12-17T10:11:52;100668.78;;;14.05;61.16
31121;BME280;17770;45.966;13.632;2022-12-17T10:14:37;100663.59;;;14.05;60.96
31121;BME280;17770;45.966;13.632;2022-12-17T10:17:21;100661.06;;;14.03;60.81
31121;BME280;17770;45.966;13.632;2022-12-17T10:20:17;100667.09;;;14.04;61.00
31121;BME280;17770;45.966;13.632;2022-12-17T10:23:04;100665.38;;;14.04;60.96
31121;BME280;17770;45.966;13.632;2022-12-17T10:25:52;100669.66;;;14.05;60.89
31121;BME280;17770;45.966;13.632;2022-12-17T10:28:37;100671.44;;;14.03;61.14
31121;BME280;17770;45.966;13.632;2022-12-17T10:31:22;100673.16;;;14.04;60.59
31121;BME280;17770;45.966;13.632;2022-12-17T10:34:16;100669.69;;;14.04;60.78
31121;BME280;17770;45.966;13.632;2022-12-17T10:37:01;100676.56;;;14.05;61.16
31121;BME280;17770;45.966;13.632;2022-12-17T10:39:53;100681.75;;;14.05;60.89
31121;BME280;17770;45.966;13.632;2022-12-17T10:42:38;100678.34;;;14.04;61.14
31121;BME280;17770;45.966;13.632;2022-12-17T10:45:27;100678.34;;;14.04;60.65
31121;BME280;17770;45.966;13.632;2022-12-17T10:48:24;100686.94;;;14.05;60.68
31121;BME280;17770;45.966;13.632;2022-12-17T10:51:17;100686.13;;;14.04;60.87
31121;BME280;17770;45.966;13.632;2022-12-17T10:54:13;100690.38;;;14.05;60.63
31121;BME280;17770;45.966;13.632;2022-12-17T10:57:01;100692.97;;;14.05;60.98
31121;BME280;17770;45.966;13.632;2022-12-17T10:59:45;100695.56;;;14.05;60.85
31121;BME280;17770;45.966;13.632;2022-12-17T11:02:30;100695.56;;;14.05;60.80
31121;BME280;17770;45.966;13.632;2022-12-17T11:05:23;100699.03;;;14.06;60.74
31121;BME280;17770;45.966;13.632;2022-12-17T11:08:08;100695.56;;;14.05;60.95
31121;BME280;17770;45.966;13.632;2022-12-17T11:10:54;100699.03;;;14.06;60.82
31121;BME280;17770;45.966;13.632;2022-12-17T11:13:40;100705.06;;;14.06;60.96
31121;BME280;17770;45.966;13.632;2022-12-17T11:16:28;100707.66;;;14.06;61.14
31121;BME280;17770;45.966;13.632;2022-12-17T11:19:19;100710.25;;;14.06;60.92
31121;BME280;17770;45.966;13.632;2022-12-17T11:22:11;100709.41;;;14.06;60.87
31121;BME280;17770;45.966;13.632;2022-12-17T11:25:12;100723.22;;;14.06;61.05
31121;BME280;17770;45.966;13.632;2022-12-17T11:28:10;100721.44;;;14.07;60.91
31121;BME280;17770;45.966;13.632;2022-12-17T11:31:08;100733.63;;;14.05;60.55
31121;BME280;17770;45.966;13.632;2022-12-17T11:37:03;100734.47;;;14.05;60.58
31121;BME280;17770;45.966;13.632;2022-12-17T11:39:57;100731.88;;;14.05;61.05
31121;BME280;17770;45.966;13.632;2022-12-17T11:46:08;100740.50;;;14.06;60.77
31121;BME280;17770;45.966;13.632;2022-12-17T11:49:33;100744.84;;;14.05;61.01
31121;BME280;17770;45.966;13.632;2022-12-17T11:54:59;100744.78;;;14.07;60.98
31121;BME280;17770;45.966;13.632;2022-12-17T12:07:30;100754.34;;;14.06;60.99
31121;BME280;17770;45.966;13.632;2022-12-17T12:10:16;100757.75;;;14.07;60.97
31121;BME280;17770;45.966;13.632;2022-12-17T12:21:39;100775.25;;;14.25;62.75
31121;BME280;17770;45.966;13.632;2022-12-17T12:30:18;100780.47;;;14.23;61.95
31121;BME280;17770;45.966;13.632;2022-12-17T12:33:12;100784.84;;;14.21;61.53
31121;BME280;17770;45.966;13.632;2022-12-17T12:36:00;100781.50;;;14.19;61.51
31121;BME280;17770;45.966;13.632;2022-12-17T12:38:44;100789.34;;;14.18;61.54
31121;BME280;17770;45.966;13.632;2022-12-17T12:41:53;100796.25;;;14.17;61.69
31121;BME280;17770;45.966;13.632;2022-12-17T12:47:26;100792.88;;;14.15;61.80
31121;BME280;17770;45.966;13.632;2022-12-17T12:50:18;100799.75;;;14.16;61.33
31121;BME280;17770;45.966;13.632;2022-12-17T12:53:06;100785.09;;;14.15;61.36
31121;BME280;17770;45.966;13.632;2022-12-17T12:55:52;100792.03;;;14.15;61.15
31121;BME280;17770;45.966;13.632;2022-12-17T12:58:36;100789.38;;;14.16;61.38
31121;BME280;17770;45.966;13.632;2022-12-17T13:01:20;100793.78;;;14.14;61.71
31121;BME280;17770;45.966;13.632;2022-12-17T13:04:20;100795.47;;;14.15;61.18
31121;BME280;17770;45.966;13.632;2022-12-17T13:07:17;100794.63;;;14.15;61.27
31121;BME280;17770;45.966;13.632;2022-12-17T13:09:46;100799.75;;;14.16;61.19
31121;BME280;17770;45.966;13.632;2022-12-17T13:12:17;100795.53;;;14.14;61.22
31121;BME280;17770;45.966;13.632;2022-12-17T13:14:50;100804.09;;;14.16;61.25
31121;BME280;17770;45.966;13.632;2022-12-17T13:24:48;100822.31;;;14.14;61.27
31121;BME280;17770;45.966;13.632;2022-12-17T13:32:38;100845.66;;;14.14;61.39
31121;BME280;17770;45.966;13.632;2022-12-17T13:35:16;100858.63;;;14.14;61.41
31121;BME280;17770;45.966;13.632;2022-12-17T13:40:21;100862.03;;;14.15;61.21
31121;BME280;17770;45.966;13.632;2022-12-17T13:42:51;100855.19;;;14.14;61.13
31121;BME280;17770;45.966;13.632;2022-12-17T13:45:18;100864.63;;;14.15;61.14
31121;BME280;17770;45.966;13.632;2022-12-17T13:47:52;100870.75;;;14.14;61.23
31121;BME280;17770;45.966;13.632;2022-12-17T13:50:20;100871.59;;;14.14;61.29
31121;BME280;17770;45.966;13.632;2022-12-17T13:52:47;100875.94;;;14.14;61.37
31121;BME280;17770;45.966;13.632;2022-12-17T13:55:16;100881.97;;;14.14;61.00
31121;BME280;17770;45.966;13.632;2022-12-17T13:57:44;100882.84;;;14.13;61.42
31121;BME280;17770;45.966;13.632;2022-12-17T14:00:16;100892.34;;;14.14;61.09
31121;BME280;17770;45.966;13.632;2022-12-17T14:02:43;100892.34;;;14.14;61.25
31121;BME280;17770;45.966;13.632;2022-12-17T14:05:22;100894.94;;;14.14;61.15
31121;BME280;17770;45.966;13.632;2022-12-17T14:07:49;100898.34;;;14.15;61.14
31121;BME280;17770;45.966;13.632;2022-12-17T14:10:16;100902.72;;;14.14;61.23
31121;BME280;17770;45.966;13.632;2022-12-17T14:12:44;100913.09;;;14.14;61.39
31121;BME280;17770;45.966;13.632;2022-12-17T14:15:23;100913.91;;;14.15;60.98
31121;BME280;17770;45.966;13.632;2022-12-17T14:17:50;100919.09;;;14.15;60.96
31121;BME280;17770;45.966;13.632;2022-12-17T14:20:35;100930.41;;;14.14;61.23
31121;BME280;17770;45.966;13.632;2022-12-17T14:23:10;100935.53;;;14.15;61.26
31121;BME280;17770;45.966;13.632;2022-12-17T14:25:39;100939.03;;;14.14;61.18
31121;BME280;17770;45.966;13.632;2022-12-17T14:28:17;100943.31;;;14.15;61.22
31121;BME280;17770;45.966;13.632;2022-12-17T14:30:44;100947.63;;;14.15;61.46
31121;BME280;17770;45.966;13.632;2022-12-17T14:35:53;100961.47;;;14.15;60.95
31121;BME280;17770;45.966;13.632;2022-12-17T14:38:19;100968.38;;;14.15;61.13
31121;BME280;17770;45.966;13.632;2022-12-17T14:40:45;100972.75;;;14.14;60.93
31121;BME280;17770;45.966;13.632;2022-12-17T14:43:12;100964.97;;;14.14;60.98
31121;BME280;17770;45.966;13.632;2022-12-17T14:45:38;100976.16;;;14.15;61.15
31121;BME280;17770;45.966;13.632;2022-12-17T14:48:32;100978.75;;;14.15;61.08
31121;BME280;17770;45.966;13.632;2022-12-17T14:51:27;100979.63;;;14.15;61.51
31121;BME280;17770;45.966;13.632;2022-12-17T14:54:03;100985.72;;;14.14;61.21
31121;BME280;17770;45.966;13.632;2022-12-17T14:56:29;100983.13;;;14.14;61.17
31121;BME280;17770;45.966;13.632;2022-12-17T14:58:55;100986.53;;;14.15;61.25
31121;BME280;17770;45.966;13.632;2022-12-17T15:01:21;100983.13;;;14.14;61.40
31121;BME280;17770;45.966;13.632;2022-12-17T15:03:47;100988.31;;;14.14;61.33
31121;BME280;17770;45.966;13.632;2022-12-17T15:06:16;100998.75;;;14.13;61.06
31121;BME280;17770;45.966;13.632;2022-12-17T15:08:44;100994.38;;;14.13;60.90
31121;BME280;17770;45.966;13.632;2022-12-17T15:11:11;101003.06;;;14.12;61.34
31121;BME280;17770;45.966;13.632;2022-12-17T15:13:37;101007.34;;;14.13;61.55
31121;BME280;17770;45.966;13.632;2022-12-17T15:16:03;101010.81;;;14.14;61.21
31121;BME280;17770;45.966;13.632;2022-12-17T15:18:29;101015.13;;;14.13;60.93